sensor_id;sensor_type;location;lat;lon;timestamp;P1;durP1;ratioP1;P2;durP2;ratioP2
30000;SDS011;16845;48.670;9.000;2023-03-13T00:00:54;8.93;;;3.10;;
30000;SDS011;16845;48.670;9.000;2023-03-13T00:03:24;12.77;;;3.67;;
30000;SDS011;16845;48.670;9.000;2023-03-13T00:05:54;12.27;;;2.70;;
30000;SDS011;16845;48.670;9.000;2023-03-13T00:08:23;15.90;;;2.80;;
30000;SDS011;16845;48.670;9.000;2023-03-13T00:10:51;13.07;;;3.53;;
30000;SDS011;16845;48.670;9.000;2023-03-13T00:13:20;13.45;;;3.65;;
30000;SDS011;16845;48.670;9.000;2023-03-13T00:15:48;12.27;;;3.03;;
30000;SDS011;16845;48.670;9.000;2023-03-13T00:18:16;16.48;;;3.20;;
30000;SDS011;16845;48.670;9.000;2023-03-13T00:20:44;12.57;;;3.15;;
30000;SDS011;16845;48.670;9.000;2023-03-13T00:23:14;18.27;;;3.28;;
30000;SDS011;16845;48.670;9.000;2023-03-13T00:25:41;12.13;;;3.00;;
30000;SDS011;16845;48.670;9.000;2023-03-13T00:28:09;13.57;;;2.97;;
30000;SDS011;16845;48.670;9.000;2023-03-13T00:30:39;19.70;;;3.40;;
30000;SDS011;16845;48.670;9.000;2023-03-13T00:33:06;15.60;;;3.45;;
30000;SDS011;16845;48.670;9.000;2023-03-13T00:35:34;10.70;;;2.60;;
30000;SDS011;16845;48.670;9.000;2023-03-13T00:38:02;15.75;;;3.13;;
30000;SDS011;16845;48.670;9.000;2023-03-13T00:40:30;12.07;;;2.78;;
30000;SDS011;16845;48.670;9.000;2023-03-13T00:42:58;12.95;;;2.53;;
30000;SDS011;16845;48.670;9.000;2023-03-13T00:45:26;7.53;;;2.17;;
30000;SDS011;16845;48.670;9.000;2023-03-13T00:47:55;14.32;;;3.15;;
30000;SDS011;16845;48.670;9.000;2023-03-13T00:50:23;17.15;;;2.95;;
30000;SDS011;16845;48.670;9.000;2023-03-13T00:52:51;12.80;;;2.63;;
30000;SDS011;16845;48.670;9.000;2023-03-13T00:55:19;8.10;;;2.72;;
30000;SDS011;16845;48.670;9.000;2023-03-13T00:57:47;10.52;;;2.80;;
30000;SDS011;16845;48.670;9.000;2023-03-13T01:00:15;8.90;;;2.85;;
30000;SDS011;16845;48.670;9.000;2023-03-13T01:02:43;13.20;;;2.58;;
30000;SDS011;16845;48.670;9.000;2023-03-13T01:05:13;9.98;;;2.63;;
30000;SDS011;16845;48.670;9.000;2023-03-13T01:07:41;8.95;;;2.65;;
30000;SDS011;16845;48.670;9.000;2023-03-13T01:10:09;9.90;;;2.47;;
30000;SDS011;16845;48.670;9.000;2023-03-13T01:12:38;7.88;;;2.22;;
30000;SDS011;16845;48.670;9.000;2023-03-13T01:15:07;14.48;;;3.00;;
30000;SDS011;16845;48.670;9.000;2023-03-13T01:17:36;14.02;;;2.63;;
30000;SDS011;16845;48.670;9.000;2023-03-13T01:20:04;11.90;;;3.53;;
30000;SDS011;16845;48.670;9.000;2023-03-13T01:22:36;9.13;;;2.60;;
30000;SDS011;16845;48.670;9.000;2023-03-13T01:25:04;6.28;;;2.30;;
30000;SDS011;16845;48.670;9.000;2023-03-13T01:27:33;11.32;;;2.78;;
30000;SDS011;16845;48.670;9.000;2023-03-13T01:30:01;11.95;;;2.75;;
30000;SDS011;16845;48.670;9.000;2023-03-13T01:32:31;16.08;;;2.75;;
30000;SDS011;16845;48.670;9.000;2023-03-13T01:34:59;9.05;;;2.60;;
30000;SDS011;16845;48.670;9.000;2023-03-13T01:37:27;7.47;;;2.17;;
30000;SDS011;16845;48.670;9.000;2023-03-13T01:39:56;7.88;;;2.42;;
30000;SDS011;16845;48.670;9.000;2023-03-13T01:42:24;8.23;;;2.03;;
30000;SDS011;16845;48.670;9.000;2023-03-13T01:44:52;11.02;;;2.88;;
30000;SDS011;16845;48.670;9.000;2023-03-13T01:47:22;9.30;;;2.85;;
30000;SDS011;16845;48.670;9.000;2023-03-13T01:49:50;8.35;;;2.20;;
30000;SDS011;16845;48.670;9.000;2023-03-13T01:52:19;13.23;;;2.35;;
30000;SDS011;16845;48.670;9.000;2023-03-13T01:54:51;11.25;;;2.42;;
30000;SDS011;16845;48.670;9.000;2023-03-13T01:57:24;13.82;;;3.10;;
30000;SDS011;16845;48.670;9.000;2023-03-13T01:59:55;11.18;;;2.40;;
30000;SDS011;16845;48.670;9.000;2023-03-13T02:02:26;9.80;;;2.15;;
30000;SDS011;16845;48.670;9.000;2023-03-13T02:04:56;8.32;;;2.30;;
30000;SDS011;16845;48.670;9.000;2023-03-13T02:07:28;10.55;;;2.38;;
30000;SDS011;16845;48.670;9.000;2023-03-13T02:10:00;6.45;;;1.95;;
30000;SDS011;16845;48.670;9.000;2023-03-13T02:12:30;9.63;;;2.08;;
30000;SDS011;16845;48.670;9.000;2023-03-13T02:14:59;17.27;;;2.92;;
30000;SDS011;16845;48.670;9.000;2023-03-13T02:17:30;6.15;;;2.15;;
30000;SDS011;16845;48.670;9.000;2023-03-13T02:20:00;8.02;;;2.05;;
30000;SDS011;16845;48.670;9.000;2023-03-13T02:22:30;4.25;;;1.90;;
30000;SDS011;16845;48.670;9.000;2023-03-13T02:25:05;7.78;;;1.88;;
30000;SDS011;16845;48.670;9.000;2023-03-13T02:27:40;5.53;;;1.83;;
30000;SDS011;16845;48.670;9.000;2023-03-13T02:30:11;9.40;;;2.08;;
30000;SDS011;16845;48.670;9.000;2023-03-13T02:32:41;8.43;;;2.00;;
30000;SDS011;16845;48.670;9.000;2023-03-13T02:35:11;5.07;;;1.65;;
30000;SDS011;16845;48.670;9.000;2023-03-13T02:37:41;6.07;;;1.63;;
30000;SDS011;16845;48.670;9.000;2023-03-13T02:40:11;8.50;;;1.88;;
30000;SDS011;16845;48.670;9.000;2023-03-13T02:42:43;3.15;;;1.40;;
30000;SDS011;16845;48.670;9.000;2023-03-13T02:45:13;4.72;;;1.85;;
30000;SDS011;16845;48.670;9.000;2023-03-13T02:47:41;5.90;;;1.65;;
30000;SDS011;16845;48.670;9.000;2023-03-13T02:50:10;5.45;;;1.60;;
30000;SDS011;16845;48.670;9.000;2023-03-13T02:52:39;11.88;;;1.73;;
30000;SDS011;16845;48.670;9.000;2023-03-13T02:55:11;4.22;;;1.60;;
30000;SDS011;16845;48.670;9.000;2023-03-13T02:57:44;8.77;;;1.73;;
30000;SDS011;16845;48.670;9.000;2023-03-13T03:00:12;8.48;;;2.13;;
30000;SDS011;16845;48.670;9.000;2023-03-13T03:02:42;7.32;;;1.67;;
30000;SDS011;16845;48.670;9.000;2023-03-13T03:05:10;7.03;;;2.13;;
30000;SDS011;16845;48.670;9.000;2023-03-13T03:07:39;5.43;;;2.30;;
30000;SDS011;16845;48.670;9.000;2023-03-13T03:10:07;3.78;;;1.30;;
30000;SDS011;16845;48.670;9.000;2023-03-13T03:12:36;6.05;;;1.80;;
30000;SDS011;16845;48.670;9.000;2023-03-13T03:15:06;8.43;;;2.00;;
30000;SDS011;16845;48.670;9.000;2023-03-13T03:17:35;5.78;;;1.20;;
30000;SDS011;16845;48.670;9.000;2023-03-13T03:20:03;5.55;;;1.40;;
30000;SDS011;16845;48.670;9.000;2023-03-13T03:22:34;7.30;;;1.30;;
30000;SDS011;16845;48.670;9.000;2023-03-13T03:25:04;5.03;;;1.20;;
30000;SDS011;16845;48.670;9.000;2023-03-13T03:27:32;5.30;;;1.55;;
30000;SDS011;16845;48.670;9.000;2023-03-13T03:30:01;5.25;;;1.40;;
30000;SDS011;16845;48.670;9.000;2023-03-13T03:32:31;3.97;;;1.45;;
30000;SDS011;16845;48.670;9.000;2023-03-13T03:34:59;2.90;;;1.13;;
30000;SDS011;16845;48.670;9.000;2023-03-13T03:37:27;6.47;;;1.73;;
30000;SDS011;16845;48.670;9.000;2023-03-13T03:39:55;3.20;;;1.20;;
30000;SDS011;16845;48.670;9.000;2023-03-13T03:42:23;2.42;;;1.27;;
30000;SDS011;16845;48.670;9.000;2023-03-13T03:44:51;3.58;;;1.10;;
30000;SDS011;16845;48.670;9.000;2023-03-13T03:47:19;4.82;;;1.38;;
30000;SDS011;16845;48.670;9.000;2023-03-13T03:49:48;4.72;;;0.98;;
30000;SDS011;16845;48.670;9.000;2023-03-13T03:52:16;2.47;;;1.00;;
30000;SDS011;16845;48.670;9.000;2023-03-13T03:54:44;2.80;;;1.27;;
30000;SDS011;16845;48.670;9.000;2023-03-13T03:57:12;6.32;;;1.48;;
30000;SDS011;16845;48.670;9.000;2023-03-13T03:59:40;1.95;;;1.05;;
30000;SDS011;16845;48.670;9.000;2023-03-13T04:02:08;1.92;;;1.02;;
30000;SDS011;16845;48.670;9.000;2023-03-13T04:04:36;1.30;;;1.05;;
30000;SDS011;16845;48.670;9.000;2023-03-13T04:07:05;2.33;;;1.10;;
30000;SDS011;16845;48.670;9.000;2023-03-13T04:09:33;2.90;;;1.33;;
30000;SDS011;16845;48.670;9.000;2023-03-13T04:12:01;4.07;;;1.00;;
30000;SDS011;16845;48.670;9.000;2023-03-13T04:14:29;1.80;;;0.90;;
30000;SDS011;16845;48.670;9.000;2023-03-13T04:16:57;1.88;;;1.10;;
30000;SDS011;16845;48.670;9.000;2023-03-13T04:19:25;2.95;;;1.13;;
30000;SDS011;16845;48.670;9.000;2023-03-13T04:21:53;2.60;;;1.70;;
30000;SDS011;16845;48.670;9.000;2023-03-13T04:24:22;0.88;;;0.70;;
30000;SDS011;16845;48.670;9.000;2023-03-13T04:26:50;3.30;;;1.17;;
30000;SDS011;16845;48.670;9.000;2023-03-13T04:29:18;1.30;;;0.68;;
30000;SDS011;16845;48.670;9.000;2023-03-13T04:31:46;2.58;;;1.15;;
30000;SDS011;16845;48.670;9.000;2023-03-13T04:34:13;4.00;;;1.08;;
30000;SDS011;16845;48.670;9.000;2023-03-13T04:36:41;3.95;;;1.10;;
30000;SDS011;16845;48.670;9.000;2023-03-13T04:39:09;1.05;;;0.75;;
30000;SDS011;16845;48.670;9.000;2023-03-13T04:41:38;6.65;;;1.20;;
30000;SDS011;16845;48.670;9.000;2023-03-13T04:44:06;4.15;;;0.95;;
30000;SDS011;16845;48.670;9.000;2023-03-13T04:46:34;5.03;;;1.42;;
30000;SDS011;16845;48.670;9.000;2023-03-13T04:49:02;3.10;;;1.65;;
30000;SDS011;16845;48.670;9.000;2023-03-13T04:51:34;2.97;;;1.92;;
30000;SDS011;16845;48.670;9.000;2023-03-13T04:54:01;1.45;;;0.80;;
30000;SDS011;16845;48.670;9.000;2023-03-13T04:56:29;2.72;;;0.80;;
30000;SDS011;16845;48.670;9.000;2023-03-13T04:59:10;1.65;;;1.00;;
30000;SDS011;16845;48.670;9.000;2023-03-13T05:01:38;2.30;;;1.17;;
30000;SDS011;16845;48.670;9.000;2023-03-13T05:04:07;1.85;;;0.85;;
30000;SDS011;16845;48.670;9.000;2023-03-13T05:06:36;4.22;;;1.30;;
30000;SDS011;16845;48.670;9.000;2023-03-13T05:09:04;1.90;;;1.10;;
30000;SDS011;16845;48.670;9.000;2023-03-13T05:11:32;2.13;;;0.95;;
30000;SDS011;16845;48.670;9.000;2023-03-13T05:14:01;3.00;;;0.93;;
30000;SDS011;16845;48.670;9.000;2023-03-13T05:16:30;5.47;;;1.02;;
30000;SDS011;16845;48.670;9.000;2023-03-13T05:18:58;5.32;;;1.20;;
30000;SDS011;16845;48.670;9.000;2023-03-13T05:21:26;0.68;;;0.63;;
30000;SDS011;16845;48.670;9.000;2023-03-13T05:23:54;2.13;;;0.90;;
30000;SDS011;16845;48.670;9.000;2023-03-13T05:26:22;1.23;;;0.60;;
30000;SDS011;16845;48.670;9.000;2023-03-13T05:28:50;2.50;;;0.98;;
30000;SDS011;16845;48.670;9.000;2023-03-13T05:31:18;1.73;;;0.90;;
30000;SDS011;16845;48.670;9.000;2023-03-13T05:33:47;1.70;;;1.02;;
30000;SDS011;16845;48.670;9.000;2023-03-13T05:36:15;4.03;;;0.70;;
30000;SDS011;16845;48.670;9.000;2023-03-13T05:38:43;1.75;;;0.77;;
30000;SDS011;16845;48.670;9.000;2023-03-13T05:41:11;2.95;;;1.23;;
30000;SDS011;16845;48.670;9.000;2023-03-13T05:43:39;1.75;;;0.57;;
30000;SDS011;16845;48.670;9.000;2023-03-13T05:46:06;0.98;;;0.80;;
30000;SDS011;16845;48.670;9.000;2023-03-13T05:48:34;2.33;;;0.60;;
30000;SDS011;16845;48.670;9.000;2023-03-13T05:51:04;1.77;;;1.52;;
30000;SDS011;16845;48.670;9.000;2023-03-13T05:53:32;0.60;;;0.60;;
30000;SDS011;16845;48.670;9.000;2023-03-13T05:56:00;1.73;;;0.75;;
30000;SDS011;16845;48.670;9.000;2023-03-13T05:58:27;1.25;;;0.75;;
30000;SDS011;16845;48.670;9.000;2023-03-13T06:00:55;1.90;;;0.50;;
30000;SDS011;16845;48.670;9.000;2023-03-13T06:03:23;2.40;;;0.55;;
30000;SDS011;16845;48.670;9.000;2023-03-13T06:05:56;1.30;;;0.70;;
30000;SDS011;16845;48.670;9.000;2023-03-13T06:08:25;1.50;;;0.68;;
30000;SDS011;16845;48.670;9.000;2023-03-13T06:10:54;2.30;;;0.50;;
30000;SDS011;16845;48.670;9.000;2023-03-13T06:13:24;1.13;;;0.65;;
30000;SDS011;16845;48.670;9.000;2023-03-13T06:15:52;2.72;;;0.60;;
30000;SDS011;16845;48.670;9.000;2023-03-13T06:18:22;3.53;;;0.65;;
30000;SDS011;16845;48.670;9.000;2023-03-13T06:20:54;4.32;;;1.00;;
30000;SDS011;16845;48.670;9.000;2023-03-13T06:23:23;1.95;;;0.90;;
30000;SDS011;16845;48.670;9.000;2023-03-13T06:25:52;0.95;;;0.55;;
30000;SDS011;16845;48.670;9.000;2023-03-13T06:28:20;1.10;;;0.63;;
30000;SDS011;16845;48.670;9.000;2023-03-13T06:30:48;1.20;;;0.75;;
30000;SDS011;16845;48.670;9.000;2023-03-13T06:33:16;1.33;;;0.63;;
30000;SDS011;16845;48.670;9.000;2023-03-13T06:35:44;0.68;;;0.50;;
30000;SDS011;16845;48.670;9.000;2023-03-13T06:38:22;2.13;;;0.65;;
30000;SDS011;16845;48.670;9.000;2023-03-13T06:40:50;0.50;;;0.50;;
30000;SDS011;16845;48.670;9.000;2023-03-13T06:43:20;0.50;;;0.50;;
30000;SDS011;16845;48.670;9.000;2023-03-13T06:45:48;3.58;;;0.50;;
30000;SDS011;16845;48.670;9.000;2023-03-13T06:48:16;1.52;;;0.73;;
30000;SDS011;16845;48.670;9.000;2023-03-13T06:50:44;1.08;;;0.75;;
30000;SDS011;16845;48.670;9.000;2023-03-13T06:53:13;0.50;;;0.50;;
30000;SDS011;16845;48.670;9.000;2023-03-13T06:55:43;1.35;;;0.75;;
30000;SDS011;16845;48.670;9.000;2023-03-13T06:58:12;1.08;;;0.60;;
30000;SDS011;16845;48.670;9.000;2023-03-13T07:00:56;3.35;;;0.60;;
30000;SDS011;16845;48.670;9.000;2023-03-13T07:03:24;0.75;;;0.50;;
30000;SDS011;16845;48.670;9.000;2023-03-13T07:05:54;1.15;;;0.73;;
30000;SDS011;16845;48.670;9.000;2023-03-13T07:08:23;0.60;;;0.60;;
30000;SDS011;16845;48.670;9.000;2023-03-13T07:10:51;1.50;;;0.50;;
30000;SDS011;16845;48.670;9.000;2023-03-13T07:13:20;0.85;;;0.73;;
30000;SDS011;16845;48.670;9.000;2023-03-13T07:15:48;0.90;;;0.85;;
30000;SDS011;16845;48.670;9.000;2023-03-13T07:18:16;2.42;;;0.85;;
30000;SDS011;16845;48.670;9.000;2023-03-13T07:20:44;0.98;;;0.60;;
30000;SDS011;16845;48.670;9.000;2023-03-13T07:23:19;0.60;;;0.60;;
30000;SDS011;16845;48.670;9.000;2023-03-13T07:25:53;0.70;;;0.70;;
30000;SDS011;16845;48.670;9.000;2023-03-13T07:28:24;2.30;;;0.90;;
30000;SDS011;16845;48.670;9.000;2023-03-13T07:30:53;0.75;;;0.70;;
30000;SDS011;16845;48.670;9.000;2023-03-13T07:33:21;1.48;;;0.63;;
30000;SDS011;16845;48.670;9.000;2023-03-13T07:35:49;1.15;;;0.70;;
30000;SDS011;16845;48.670;9.000;2023-03-13T07:38:18;0.75;;;0.60;;
30000;SDS011;16845;48.670;9.000;2023-03-13T07:40:47;2.30;;;0.75;;
30000;SDS011;16845;48.670;9.000;2023-03-13T07:43:16;1.60;;;1.30;;
30000;SDS011;16845;48.670;9.000;2023-03-13T07:45:53;2.15;;;0.85;;
30000;SDS011;16845;48.670;9.000;2023-03-13T07:48:22;1.10;;;0.80;;
30000;SDS011;16845;48.670;9.000;2023-03-13T07:50:52;2.30;;;0.75;;
30000;SDS011;16845;48.670;9.000;2023-03-13T07:53:21;3.47;;;0.93;;
30000;SDS011;16845;48.670;9.000;2023-03-13T07:55:53;1.20;;;0.73;;
30000;SDS011;16845;48.670;9.000;2023-03-13T07:58:23;2.42;;;0.93;;
30000;SDS011;16845;48.670;9.000;2023-03-13T08:00:53;3.92;;;0.63;;
30000;SDS011;16845;48.670;9.000;2023-03-13T08:03:21;0.82;;;0.65;;
30000;SDS011;16845;48.670;9.000;2023-03-13T08:05:56;1.50;;;0.88;;
30000;SDS011;16845;48.670;9.000;2023-03-13T08:08:25;2.17;;;0.68;;
30000;SDS011;16845;48.670;9.000;2023-03-13T08:10:58;0.95;;;0.68;;
30000;SDS011;16845;48.670;9.000;2023-03-13T08:13:26;2.17;;;0.80;;
30000;SDS011;16845;48.670;9.000;2023-03-13T08:16:03;2.50;;;0.90;;
30000;SDS011;16845;48.670;9.000;2023-03-13T08:18:32;1.85;;;0.90;;
30000;SDS011;16845;48.670;9.000;2023-03-13T08:21:01;1.10;;;0.85;;
30000;SDS011;16845;48.670;9.000;2023-03-13T08:23:31;1.05;;;0.90;;
30000;SDS011;16845;48.670;9.000;2023-03-13T08:26:02;1.48;;;0.82;;
30000;SDS011;16845;48.670;9.000;2023-03-13T08:28:31;0.60;;;0.60;;
30000;SDS011;16845;48.670;9.000;2023-03-13T08:31:06;0.93;;;0.70;;
30000;SDS011;16845;48.670;9.000;2023-03-13T08:33:35;0.80;;;0.80;;
30000;SDS011;16845;48.670;9.000;2023-03-13T08:36:10;3.40;;;1.02;;
30000;SDS011;16845;48.670;9.000;2023-03-13T08:38:39;1.42;;;0.80;;
30000;SDS011;16845;48.670;9.000;2023-03-13T08:41:11;1.90;;;0.80;;
30000;SDS011;16845;48.670;9.000;2023-03-13T08:43:40;2.47;;;1.48;;
30000;SDS011;16845;48.670;9.000;2023-03-13T08:46:09;3.58;;;0.80;;
30000;SDS011;16845;48.670;9.000;2023-03-13T08:48:38;1.40;;;1.05;;
30000;SDS011;16845;48.670;9.000;2023-03-13T08:51:07;2.17;;;1.15;;
30000;SDS011;16845;48.670;9.000;2023-03-13T08:53:36;3.17;;;1.17;;
30000;SDS011;16845;48.670;9.000;2023-03-13T08:56:06;3.60;;;1.27;;
30000;SDS011;16845;48.670;9.000;2023-03-13T08:58:35;1.80;;;1.00;;
30000;SDS011;16845;48.670;9.000;2023-03-13T09:01:04;1.98;;;1.20;;
30000;SDS011;16845;48.670;9.000;2023-03-13T09:03:34;1.48;;;0.95;;
30000;SDS011;16845;48.670;9.000;2023-03-13T09:06:03;1.33;;;0.95;;
30000;SDS011;16845;48.670;9.000;2023-03-13T09:08:31;3.70;;;1.00;;
30000;SDS011;16845;48.670;9.000;2023-03-13T09:11:00;2.60;;;0.93;;
30000;SDS011;16845;48.670;9.000;2023-03-13T09:13:30;3.10;;;0.80;;
30000;SDS011;16845;48.670;9.000;2023-03-13T09:16:00;1.67;;;0.80;;
30000;SDS011;16845;48.670;9.000;2023-03-13T09:18:29;0.93;;;0.73;;
30000;SDS011;16845;48.670;9.000;2023-03-13T09:20:59;3.67;;;1.00;;
30000;SDS011;16845;48.670;9.000;2023-03-13T09:23:28;0.85;;;0.80;;
30000;SDS011;16845;48.670;9.000;2023-03-13T09:25:56;5.65;;;1.10;;
30000;SDS011;16845;48.670;9.000;2023-03-13T09:28:25;4.97;;;1.05;;
30000;SDS011;16845;48.670;9.000;2023-03-13T09:30:53;2.83;;;0.80;;
30000;SDS011;16845;48.670;9.000;2023-03-13T09:33:21;2.13;;;0.93;;
30000;SDS011;16845;48.670;9.000;2023-03-13T09:35:50;1.08;;;0.95;;
30000;SDS011;16845;48.670;9.000;2023-03-13T09:38:20;4.80;;;1.00;;
30000;SDS011;16845;48.670;9.000;2023-03-13T09:40:48;2.75;;;1.00;;
30000;SDS011;16845;48.670;9.000;2023-03-13T09:43:34;3.40;;;0.95;;
30000;SDS011;16845;48.670;9.000;2023-03-13T09:48:40;1.67;;;0.73;;
30000;SDS011;16845;48.670;9.000;2023-03-13T09:51:12;2.42;;;0.98;;
30000;SDS011;16845;48.670;9.000;2023-03-13T09:53:45;2.45;;;1.00;;
30000;SDS011;16845;48.670;9.000;2023-03-13T09:56:18;6.28;;;1.75;;
30000;SDS011;16845;48.670;9.000;2023-03-13T09:58:51;2.00;;;1.48;;
30000;SDS011;16845;48.670;9.000;2023-03-13T10:01:23;4.68;;;1.10;;
30000;SDS011;16845;48.670;9.000;2023-03-13T10:03:56;4.88;;;1.00;;
30000;SDS011;16845;48.670;9.000;2023-03-13T10:06:32;1.58;;;0.98;;
30000;SDS011;16845;48.670;9.000;2023-03-13T10:09:10;2.20;;;1.05;;
30000;SDS011;16845;48.670;9.000;2023-03-13T10:11:46;2.47;;;0.70;;
30000;SDS011;16845;48.670;9.000;2023-03-13T10:14:26;5.38;;;1.05;;
30000;SDS011;16845;48.670;9.000;2023-03-13T10:16:59;3.38;;;1.33;;
30000;SDS011;16845;48.670;9.000;2023-03-13T10:19:34;2.28;;;0.90;;
30000;SDS011;16845;48.670;9.000;2023-03-13T10:22:07;3.95;;;1.27;;
30000;SDS011;16845;48.670;9.000;2023-03-13T10:24:44;9.98;;;1.08;;
30000;SDS011;16845;48.670;9.000;2023-03-13T10:27:16;4.10;;;0.80;;
30000;SDS011;16845;48.670;9.000;2023-03-13T10:29:44;2.10;;;1.00;;
30000;SDS011;16845;48.670;9.000;2023-03-13T10:32:13;1.85;;;1.27;;
30000;SDS011;16845;48.670;9.000;2023-03-13T10:34:51;1.20;;;0.80;;
30000;SDS011;16845;48.670;9.000;2023-03-13T10:37:23;2.28;;;0.90;;
30000;SDS011;16845;48.670;9.000;2023-03-13T10:39:54;1.35;;;0.90;;
30000;SDS011;16845;48.670;9.000;2023-03-13T10:42:41;1.83;;;1.13;;
30000;SDS011;16845;48.670;9.000;2023-03-13T10:45:13;4.60;;;0.88;;
30000;SDS011;16845;48.670;9.000;2023-03-13T10:47:43;6.10;;;1.40;;
30000;SDS011;16845;48.670;9.000;2023-03-13T10:50:16;2.75;;;1.23;;
30000;SDS011;16845;48.670;9.000;2023-03-13T10:52:47;3.88;;;1.40;;
30000;SDS011;16845;48.670;9.000;2023-03-13T10:55:18;4.07;;;1.00;;
30000;SDS011;16845;48.670;9.000;2023-03-13T10:57:55;2.90;;;1.10;;
30000;SDS011;16845;48.670;9.000;2023-03-13T11:00:29;2.38;;;1.15;;
30000;SDS011;16845;48.670;9.000;2023-03-13T11:03:00;2.58;;;1.15;;
30000;SDS011;16845;48.670;9.000;2023-03-13T11:05:32;2.88;;;1.30;;
30000;SDS011;16845;48.670;9.000;2023-03-13T11:08:20;3.13;;;1.10;;
30000;SDS011;16845;48.670;9.000;2023-03-13T11:10:52;1.48;;;1.10;;
30000;SDS011;16845;48.670;9.000;2023-03-13T11:13:29;1.80;;;0.70;;
30000;SDS011;16845;48.670;9.000;2023-03-13T11:21:52;5.53;;;1.08;;
30000;SDS011;16845;48.670;9.000;2023-03-13T11:24:26;2.30;;;0.80;;
30000;SDS011;16845;48.670;9.000;2023-03-13T11:27:01;2.88;;;0.80;;
30000;SDS011;16845;48.670;9.000;2023-03-13T11:29:38;3.15;;;0.90;;
30000;SDS011;16845;48.670;9.000;2023-03-13T11:32:18;1.85;;;0.80;;
30000;SDS011;16845;48.670;9.000;2023-03-13T11:34:50;1.33;;;0.77;;
30000;SDS011;16845;48.670;9.000;2023-03-13T11:37:21;1.42;;;0.75;;
30000;SDS011;16845;48.670;9.000;2023-03-13T11:39:52;1.55;;;0.70;;
30000;SDS011;16845;48.670;9.000;2023-03-13T11:42:37;1.52;;;0.85;;
30000;SDS011;16845;48.670;9.000;2023-03-13T11:45:15;3.45;;;1.15;;
30000;SDS011;16845;48.670;9.000;2023-03-13T11:47:55;1.33;;;1.10;;
30000;SDS011;16845;48.670;9.000;2023-03-13T11:50:34;1.45;;;0.90;;
30000;SDS011;16845;48.670;9.000;2023-03-13T11:53:09;4.95;;;0.90;;
30000;SDS011;16845;48.670;9.000;2023-03-13T11:55:55;1.98;;;0.80;;
30000;SDS011;16845;48.670;9.000;2023-03-13T11:58:34;6.30;;;0.98;;
30000;SDS011;16845;48.670;9.000;2023-03-13T12:01:12;1.90;;;0.90;;
30000;SDS011;16845;48.670;9.000;2023-03-13T12:03:43;2.00;;;0.80;;
30000;SDS011;16845;48.670;9.000;2023-03-13T12:06:23;5.60;;;1.13;;
30000;SDS011;16845;48.670;9.000;2023-03-13T12:08:58;3.42;;;0.93;;
30000;SDS011;16845;48.670;9.000;2023-03-13T12:11:31;1.60;;;0.68;;
30000;SDS011;16845;48.670;9.000;2023-03-13T12:14:05;2.72;;;1.02;;
30000;SDS011;16845;48.670;9.000;2023-03-13T12:16:40;5.65;;;0.82;;
30000;SDS011;16845;48.670;9.000;2023-03-13T12:19:13;4.63;;;1.13;;
30000;SDS011;16845;48.670;9.000;2023-03-13T12:21:47;2.17;;;1.02;;
30000;SDS011;16845;48.670;9.000;2023-03-13T12:24:20;1.30;;;0.88;;
30000;SDS011;16845;48.670;9.000;2023-03-13T12:26:53;1.35;;;0.88;;
30000;SDS011;16845;48.670;9.000;2023-03-13T12:29:29;3.28;;;0.90;;
30000;SDS011;16845;48.670;9.000;2023-03-13T12:32:06;1.75;;;0.93;;
30000;SDS011;16845;48.670;9.000;2023-03-13T12:34:42;3.83;;;1.20;;
30000;SDS011;16845;48.670;9.000;2023-03-13T12:37:19;1.08;;;0.80;;
30000;SDS011;16845;48.670;9.000;2023-03-13T12:39:55;3.53;;;0.82;;
30000;SDS011;16845;48.670;9.000;2023-03-13T12:42:35;2.20;;;1.17;;
30000;SDS011;16845;48.670;9.000;2023-03-13T12:45:13;4.10;;;0.90;;
30000;SDS011;16845;48.670;9.000;2023-03-13T12:51:01;2.33;;;0.63;;
30000;SDS011;16845;48.670;9.000;2023-03-13T12:56:54;1.75;;;0.77;;
30000;SDS011;16845;48.670;9.000;2023-03-13T12:59:33;5.00;;;0.57;;
30000;SDS011;16845;48.670;9.000;2023-03-13T13:02:13;2.60;;;0.63;;
30000;SDS011;16845;48.670;9.000;2023-03-13T13:04:44;1.70;;;0.50;;
30000;SDS011;16845;48.670;9.000;2023-03-13T13:07:21;3.20;;;0.70;;
30000;SDS011;16845;48.670;9.000;2023-03-13T13:09:59;3.83;;;0.63;;
30000;SDS011;16845;48.670;9.000;2023-03-13T13:12:42;3.17;;;0.60;;
30000;SDS011;16845;48.670;9.000;2023-03-13T13:15:15;2.00;;;0.60;;
30000;SDS011;16845;48.670;9.000;2023-03-13T13:17:50;0.60;;;0.50;;
30000;SDS011;16845;48.670;9.000;2023-03-13T13:20:35;1.10;;;0.60;;
30000;SDS011;16845;48.670;9.000;2023-03-13T13:23:17;1.80;;;0.60;;
30000;SDS011;16845;48.670;9.000;2023-03-13T13:32:28;2.20;;;0.65;;
30000;SDS011;16845;48.670;9.000;2023-03-13T13:35:02;4.50;;;0.73;;
30000;SDS011;16845;48.670;9.000;2023-03-13T13:37:32;1.35;;;0.50;;
30000;SDS011;16845;48.670;9.000;2023-03-13T13:40:20;2.40;;;0.70;;
30000;SDS011;16845;48.670;9.000;2023-03-13T13:42:53;6.72;;;0.80;;
30000;SDS011;16845;48.670;9.000;2023-03-13T13:45:23;3.85;;;0.70;;
30000;SDS011;16845;48.670;9.000;2023-03-13T13:51:19;0.65;;;0.63;;
30000;SDS011;16845;48.670;9.000;2023-03-13T13:53:52;5.30;;;0.70;;
30000;SDS011;16845;48.670;9.000;2023-03-13T13:56:29;6.18;;;0.70;;
30000;SDS011;16845;48.670;9.000;2023-03-13T13:59:02;1.23;;;0.60;;
30000;SDS011;16845;48.670;9.000;2023-03-13T14:01:39;2.10;;;0.70;;
30000;SDS011;16845;48.670;9.000;2023-03-13T14:04:10;0.77;;;0.70;;
30000;SDS011;16845;48.670;9.000;2023-03-13T14:06:46;6.10;;;1.75;;
30000;SDS011;16845;48.670;9.000;2023-03-13T14:09:19;3.17;;;0.68;;
30000;SDS011;16845;48.670;9.000;2023-03-13T14:11:57;4.53;;;1.00;;
30000;SDS011;16845;48.670;9.000;2023-03-13T14:14:25;2.17;;;0.70;;
30000;SDS011;16845;48.670;9.000;2023-03-13T14:16:53;4.78;;;0.98;;
30000;SDS011;16845;48.670;9.000;2023-03-13T14:19:23;4.47;;;1.13;;
30000;SDS011;16845;48.670;9.000;2023-03-13T14:21:58;4.25;;;1.17;;
30000;SDS011;16845;48.670;9.000;2023-03-13T14:24:27;4.43;;;0.85;;
30000;SDS011;16845;48.670;9.000;2023-03-13T14:26:55;2.60;;;0.68;;
30000;SDS011;16845;48.670;9.000;2023-03-13T14:29:23;1.35;;;0.82;;
30000;SDS011;16845;48.670;9.000;2023-03-13T14:31:52;2.92;;;1.20;;
30000;SDS011;16845;48.670;9.000;2023-03-13T14:34:22;2.28;;;0.80;;
30000;SDS011;16845;48.670;9.000;2023-03-13T14:36:51;2.10;;;0.70;;
30000;SDS011;16845;48.670;9.000;2023-03-13T14:39:43;3.03;;;0.75;;
30000;SDS011;16845;48.670;9.000;2023-03-13T14:42:14;6.22;;;0.80;;
30000;SDS011;16845;48.670;9.000;2023-03-13T14:44:44;3.45;;;0.70;;
30000;SDS011;16845;48.670;9.000;2023-03-13T14:47:17;4.85;;;1.35;;
30000;SDS011;16845;48.670;9.000;2023-03-13T14:49:54;2.50;;;0.60;;
30000;SDS011;16845;48.670;9.000;2023-03-13T14:52:25;1.05;;;0.90;;
30000;SDS011;16845;48.670;9.000;2023-03-13T14:54:56;2.38;;;1.00;;
30000;SDS011;16845;48.670;9.000;2023-03-13T14:57:27;3.42;;;0.90;;
30000;SDS011;16845;48.670;9.000;2023-03-13T15:00:20;2.00;;;0.95;;
30000;SDS011;16845;48.670;9.000;2023-03-13T15:05:39;1.75;;;0.90;;
30000;SDS011;16845;48.670;9.000;2023-03-13T15:08:09;1.60;;;0.70;;
30000;SDS011;16845;48.670;9.000;2023-03-13T15:10:41;1.33;;;0.80;;
30000;SDS011;16845;48.670;9.000;2023-03-13T15:13:13;3.70;;;1.13;;
30000;SDS011;16845;48.670;9.000;2023-03-13T15:15:42;4.65;;;0.90;;
30000;SDS011;16845;48.670;9.000;2023-03-13T15:18:14;1.38;;;0.80;;
30000;SDS011;16845;48.670;9.000;2023-03-13T15:20:48;1.42;;;1.10;;
30000;SDS011;16845;48.670;9.000;2023-03-13T15:23:16;1.77;;;0.75;;
30000;SDS011;16845;48.670;9.000;2023-03-13T15:25:46;5.65;;;0.90;;
30000;SDS011;16845;48.670;9.000;2023-03-13T15:28:16;4.53;;;1.63;;
30000;SDS011;16845;48.670;9.000;2023-03-13T15:30:47;2.05;;;0.90;;
30000;SDS011;16845;48.670;9.000;2023-03-13T15:33:16;2.35;;;0.93;;
30000;SDS011;16845;48.670;9.000;2023-03-13T15:35:46;4.57;;;1.10;;